Check out our new PWSWeather beta!
PWSweather.com
Personal Weather Stations
Station Observations
W0CHP
Plainview, MN 55694

Plainview, MN 55694

Lat: 44.16640472, Lon: -92.16882324

Elevation: 1155

Station Type: HW: WX Station Bridge, Raspberry Pi and RF (APRS) via 144.390 MHz. SW: Xastir, APRX, WeeWX and Linux.

http://wx.w0chp.net

Latest ConditionsUpdated 12:48:00 PM CST Monday, Feb 24, 2020
Currently Today's Max Today's Min Today's Average
Temperature 40.5°F4.7°C 40.5°F4.7°C 18.1°F-7.7°C 25.3°F-3.7°C
Dew Point 32.9°F0.5°C 34.2°F1.2°C 17.6°F-8.0°C 24.1°F-4.4°C
Winds 3.2 mph NE5.1 kmh NE 4.7 mph -7.6 kmh - - 1.9 mph 3.1 kmh
Wind Gusts 4.0 mph6.4 kmh 7.0 mph11.3 kmh - -
Humidity 74% 98% 74% 96%
Pressure 30.10 in1019.3 mb 30.12 in1020.0 mb 30.09 in1019.0 mb -
Hour Temp Dew Point Humidity Winds Wind Gusts Pressure Precip Precip Rate Daily Precip Total
12:48 PM 40.5°F4.7°C 32.9°F0.5°C 74% 3.2 mph NE5.1 kmh NE 4.0 mph6.4 kmh 30.10 in1019.3 mb 0.00 in0.0 mm 0.00 in0.0 mm 0.00 in0.0 mm
12:42 PM 40.5°F4.7°C 33.2°F0.7°C 75% 1.9 mph NNW3.1 kmh NNW 3.0 mph4.8 kmh 30.10 in1019.3 mb 0.00 in0.0 mm 0.00 in0.0 mm 0.00 in0.0 mm
12:36 PM 39.9°F4.4°C 32.7°F0.4°C 75% 3.5 mph NE5.6 kmh NE 7.0 mph11.3 kmh 30.10 in1019.3 mb 0.00 in0.0 mm 0.00 in0.0 mm 0.00 in0.0 mm
12:30 PM 40.0°F4.4°C 32.7°F0.4°C 75% 3.3 mph NNE5.3 kmh NNE 6.0 mph9.7 kmh 30.10 in1019.3 mb 0.00 in0.0 mm 0.00 in0.0 mm 0.00 in0.0 mm
12:24 PM 40.1°F4.5°C 33.2°F0.7°C 76% 3.2 mph N5.1 kmh N 5.0 mph8.0 kmh 30.10 in1019.3 mb 0.00 in0.0 mm 0.00 in0.0 mm 0.00 in0.0 mm
12:18 PM 40.0°F4.4°C 33.7°F0.9°C 78% 3.9 mph NE6.3 kmh NE 5.0 mph8.0 kmh 30.10 in1019.3 mb 0.00 in0.0 mm 0.00 in0.0 mm 0.00 in0.0 mm
12:12 PM 40.0°F4.4°C 34.0°F1.1°C 79% 4.7 mph ENE7.6 kmh ENE 6.0 mph9.7 kmh 30.10 in1019.3 mb 0.00 in0.0 mm 0.00 in0.0 mm 0.00 in0.0 mm
12:06 PM 39.8°F4.3°C 34.2°F1.2°C 80% 1.9 mph NE3.1 kmh NE 2.0 mph3.2 kmh 30.10 in1019.3 mb 0.00 in0.0 mm 0.00 in0.0 mm 0.00 in0.0 mm
12:00 PM 38.8°F3.8°C 33.5°F0.8°C 81% 3.0 mph NNE4.8 kmh NNE 5.0 mph8.0 kmh 30.10 in1019.3 mb 0.00 in0.0 mm 0.00 in0.0 mm 0.00 in0.0 mm
11:54 AM 38.7°F3.7°C 33.7°F0.9°C 82% 2.4 mph N3.9 kmh N 3.0 mph4.8 kmh 30.10 in1019.3 mb 0.00 in0.0 mm 0.00 in0.0 mm 0.00 in0.0 mm
11:48 AM 38.7°F3.7°C 34.0°F1.1°C 83% 2.4 mph NE3.9 kmh NE 3.0 mph4.8 kmh 30.10 in1019.3 mb 0.00 in0.0 mm 0.00 in0.0 mm 0.00 in0.0 mm
11:42 AM 37.7°F3.2°C 33.6°F0.9°C 85% 2.5 mph N4.0 kmh N 4.0 mph6.4 kmh 30.10 in1019.3 mb 0.00 in0.0 mm 0.00 in0.0 mm 0.00 in0.0 mm
11:36 AM 37.4°F3.0°C 33.6°F0.9°C 86% 3.0 mph N4.8 kmh N 5.0 mph8.0 kmh 30.11 in1019.6 mb 0.00 in0.0 mm 0.00 in0.0 mm 0.00 in0.0 mm
11:30 AM 37.6°F3.1°C 33.8°F1.0°C 86% 3.0 mph NE4.8 kmh NE 4.0 mph6.4 kmh 30.11 in1019.6 mb 0.00 in0.0 mm 0.00 in0.0 mm 0.00 in0.0 mm
11:24 AM 37.0°F2.8°C 33.7°F0.9°C 88% 2.1 mph NE3.4 kmh NE 3.0 mph4.8 kmh 30.11 in1019.6 mb 0.00 in0.0 mm 0.00 in0.0 mm 0.00 in0.0 mm
11:18 AM 36.2°F2.3°C 33.0°F0.6°C 88% 3.5 mph ENE5.6 kmh ENE 5.0 mph8.0 kmh 30.10 in1019.3 mb 0.00 in0.0 mm 0.00 in0.0 mm 0.00 in0.0 mm
11:12 AM 35.5°F1.9°C 32.9°F0.5°C 90% 2.4 mph ENE3.9 kmh ENE 4.0 mph6.4 kmh 30.11 in1019.6 mb 0.00 in0.0 mm 0.00 in0.0 mm 0.00 in0.0 mm
11:06 AM 35.1°F1.7°C 32.7°F0.4°C 91% 1.7 mph N2.7 kmh N 3.0 mph4.8 kmh 30.10 in1019.3 mb 0.00 in0.0 mm 0.00 in0.0 mm 0.00 in0.0 mm
11:00 AM 34.6°F1.4°C 32.3°F0.2°C 91% 2.1 mph N3.4 kmh N 3.0 mph4.8 kmh 30.10 in1019.3 mb 0.00 in0.0 mm 0.00 in0.0 mm 0.00 in0.0 mm
10:54 AM 34.2°F1.2°C 32.4°F0.2°C 93% 2.6 mph N4.2 kmh N 4.0 mph6.4 kmh 30.10 in1019.3 mb 0.00 in0.0 mm 0.00 in0.0 mm 0.00 in0.0 mm
10:48 AM 34.0°F1.1°C 32.4°F0.2°C 94% 2.6 mph NE4.2 kmh NE 3.0 mph4.8 kmh 30.10 in1019.3 mb 0.00 in0.0 mm 0.00 in0.0 mm 0.00 in0.0 mm
10:42 AM 33.3°F0.7°C 32.3°F0.2°C 96% 2.7 mph NNE4.3 kmh NNE 3.0 mph4.8 kmh 30.10 in1019.3 mb 0.00 in0.0 mm 0.00 in0.0 mm 0.00 in0.0 mm
10:36 AM 32.9°F0.5°C 31.9°F-0.1°C 96% 2.4 mph N3.9 kmh N 4.0 mph6.4 kmh 30.11 in1019.6 mb 0.00 in0.0 mm 0.00 in0.0 mm 0.00 in0.0 mm
10:30 AM 31.8°F-0.1°C 31.3°F-0.4°C 98% 2.1 mph NNW3.4 kmh NNW 3.0 mph4.8 kmh 30.10 in1019.3 mb 0.00 in0.0 mm 0.00 in0.0 mm 0.00 in0.0 mm
10:24 AM 30.7°F-0.7°C 30.2°F-1.0°C 98% 2.0 mph WNW3.2 kmh WNW 3.0 mph4.8 kmh 30.10 in1019.3 mb 0.00 in0.0 mm 0.00 in0.0 mm 0.00 in0.0 mm
10:18 AM 30.0°F-1.1°C 29.6°F-1.3°C 98% 2.1 mph N3.4 kmh N 3.0 mph4.8 kmh 30.11 in1019.6 mb 0.00 in0.0 mm 0.00 in0.0 mm 0.00 in0.0 mm
10:12 AM 29.4°F-1.4°C 28.9°F-1.7°C 98% 1.7 mph NNW2.7 kmh NNW 2.0 mph3.2 kmh 30.11 in1019.6 mb 0.00 in0.0 mm 0.00 in0.0 mm 0.00 in0.0 mm
10:06 AM 28.7°F-1.8°C 28.2°F-2.1°C 98% 1.9 mph NW3.1 kmh NW 2.0 mph3.2 kmh 30.10 in1019.3 mb 0.00 in0.0 mm 0.00 in0.0 mm 0.00 in0.0 mm
10:00 AM 27.9°F-2.3°C 27.4°F-2.6°C 98% 1.5 mph NW2.4 kmh NW 2.0 mph3.2 kmh 30.10 in1019.3 mb 0.00 in0.0 mm 0.00 in0.0 mm 0.00 in0.0 mm
09:54 AM 27.7°F-2.4°C 27.2°F-2.7°C 98% 1.6 mph N2.6 kmh N 2.0 mph3.2 kmh 30.11 in1019.6 mb 0.00 in0.0 mm 0.00 in0.0 mm 0.00 in0.0 mm
09:48 AM 27.4°F-2.6°C 26.9°F-2.8°C 98% 1.8 mph N2.9 kmh N 2.0 mph3.2 kmh 30.11 in1019.6 mb 0.00 in0.0 mm 0.00 in0.0 mm 0.00 in0.0 mm
09:42 AM 27.2°F-2.7°C 26.7°F-2.9°C 98% 1.6 mph N2.6 kmh N 2.0 mph3.2 kmh 30.11 in1019.6 mb 0.00 in0.0 mm 0.00 in0.0 mm 0.00 in0.0 mm
09:36 AM 26.8°F-2.9°C 26.3°F-3.2°C 98% 1.2 mph NNW1.9 kmh NNW 2.0 mph3.2 kmh 30.11 in1019.6 mb 0.00 in0.0 mm 0.00 in0.0 mm 0.00 in0.0 mm
09:30 AM 26.1°F-3.3°C 25.6°F-3.6°C 98% 1.5 mph NNW2.4 kmh NNW 2.0 mph3.2 kmh 30.11 in1019.6 mb 0.00 in0.0 mm 0.00 in0.0 mm 0.00 in0.0 mm
09:24 AM 25.4°F-3.7°C 24.9°F-3.9°C 98% 1.0 mph NNE1.6 kmh NNE 1.0 mph1.6 kmh 30.11 in1019.6 mb 0.00 in0.0 mm 0.00 in0.0 mm 0.00 in0.0 mm
09:18 AM 25.1°F-3.8°C 24.6°F-4.1°C 98% - N N -- 30.11 in1019.6 mb 0.00 in0.0 mm 0.00 in0.0 mm 0.00 in0.0 mm
09:12 AM 24.9°F-3.9°C 24.4°F-4.2°C 98% 1.0 mph N1.6 kmh N 1.0 mph1.6 kmh 30.11 in1019.6 mb 0.00 in0.0 mm 0.00 in0.0 mm 0.00 in0.0 mm
09:06 AM 24.4°F-4.2°C 23.9°F-4.5°C 98% 1.0 mph NW1.6 kmh NW 1.0 mph1.6 kmh 30.11 in1019.6 mb 0.00 in0.0 mm 0.00 in0.0 mm 0.00 in0.0 mm
09:00 AM 24.1°F-4.4°C 23.6°F-4.7°C 98% - N N -- 30.12 in1020.0 mb 0.00 in0.0 mm 0.00 in0.0 mm 0.00 in0.0 mm
08:54 AM 23.7°F-4.6°C 23.2°F-4.9°C 98% 1.0 mph NNE1.6 kmh NNE 1.0 mph1.6 kmh 30.12 in1020.0 mb 0.00 in0.0 mm 0.00 in0.0 mm 0.00 in0.0 mm
08:48 AM 23.3°F-4.8°C 22.8°F-5.1°C 98% - N N -- 30.12 in1020.0 mb 0.00 in0.0 mm 0.00 in0.0 mm 0.00 in0.0 mm
08:42 AM 22.7°F-5.2°C 22.2°F-5.4°C 98% 1.0 mph 1.6 kmh 1.0 mph1.6 kmh 30.12 in1020.0 mb 0.00 in0.0 mm 0.00 in0.0 mm 0.00 in0.0 mm
08:36 AM 22.4°F-5.3°C 21.9°F-5.6°C 98% 1.0 mph N1.6 kmh N 1.0 mph1.6 kmh 30.11 in1019.6 mb 0.00 in0.0 mm 0.00 in0.0 mm 0.00 in0.0 mm
08:30 AM 21.7°F-5.7°C 21.2°F-6.0°C 98% - N N -- 30.11 in1019.6 mb 0.00 in0.0 mm 0.00 in0.0 mm 0.00 in0.0 mm
08:24 AM 20.8°F-6.2°C 20.3°F-6.5°C 98% - N N -- 30.11 in1019.6 mb 0.00 in0.0 mm 0.00 in0.0 mm 0.00 in0.0 mm
08:18 AM 20.7°F-6.3°C 20.2°F-6.6°C 98% - N N -- 30.11 in1019.6 mb 0.00 in0.0 mm 0.00 in0.0 mm 0.00 in0.0 mm
08:12 AM 20.2°F-6.6°C 19.7°F-6.8°C 98% 1.0 mph NNW1.6 kmh NNW 1.0 mph1.6 kmh 30.11 in1019.6 mb 0.00 in0.0 mm 0.00 in0.0 mm 0.00 in0.0 mm
08:06 AM 19.8°F-6.8°C 19.3°F-7.1°C 98% - N N -- 30.11 in1019.6 mb 0.00 in0.0 mm 0.00 in0.0 mm 0.00 in0.0 mm
08:00 AM 19.7°F-6.8°C 19.2°F-7.1°C 98% 1.0 mph 1.6 kmh 1.0 mph1.6 kmh 30.11 in1019.6 mb 0.00 in0.0 mm 0.00 in0.0 mm 0.00 in0.0 mm
07:54 AM 19.1°F-7.2°C 18.6°F-7.4°C 98% - N N -- 30.11 in1019.6 mb 0.00 in0.0 mm 0.00 in0.0 mm 0.00 in0.0 mm
07:48 AM 18.6°F-7.4°C 18.2°F-7.7°C 98% - N N -- 30.11 in1019.6 mb 0.00 in0.0 mm 0.00 in0.0 mm 0.00 in0.0 mm
07:42 AM 18.1°F-7.7°C 17.6°F-8.0°C 98% - N N -- 30.10 in1019.3 mb 0.00 in0.0 mm 0.00 in0.0 mm 0.00 in0.0 mm
07:36 AM 18.1°F-7.7°C 17.6°F-8.0°C 98% - N N -- 30.10 in1019.3 mb 0.00 in0.0 mm 0.00 in0.0 mm 0.00 in0.0 mm
07:30 AM 18.1°F-7.7°C 17.6°F-8.0°C 98% - N N -- 30.11 in1019.6 mb 0.00 in0.0 mm 0.00 in0.0 mm 0.00 in0.0 mm
07:24 AM 18.1°F-7.7°C 17.6°F-8.0°C 98% - N N -- 30.11 in1019.6 mb 0.00 in0.0 mm 0.00 in0.0 mm 0.00 in0.0 mm
07:18 AM 18.2°F-7.7°C 17.7°F-7.9°C 98% - N N -- 30.11 in1019.6 mb 0.00 in0.0 mm 0.00 in0.0 mm 0.00 in0.0 mm
07:12 AM 18.6°F-7.4°C 18.1°F-7.7°C 98% - N N -- 30.10 in1019.3 mb 0.00 in0.0 mm 0.00 in0.0 mm 0.00 in0.0 mm
07:06 AM 19.0°F-7.2°C 18.5°F-7.5°C 98% - N N -- 30.10 in1019.3 mb 0.00 in0.0 mm 0.00 in0.0 mm 0.00 in0.0 mm
07:00 AM 19.3°F-7.1°C 18.8°F-7.3°C 98% - N N -- 30.10 in1019.3 mb 0.00 in0.0 mm 0.00 in0.0 mm 0.00 in0.0 mm
06:54 AM 19.3°F-7.1°C 18.8°F-7.3°C 98% - N N -- 30.10 in1019.3 mb 0.00 in0.0 mm 0.00 in0.0 mm 0.00 in0.0 mm
06:48 AM 19.2°F-7.1°C 18.7°F-7.4°C 98% - N N -- 30.11 in1019.6 mb 0.00 in0.0 mm 0.00 in0.0 mm 0.00 in0.0 mm
06:42 AM 18.9°F-7.3°C 18.5°F-7.5°C 98% - N N -- 30.11 in1019.6 mb 0.00 in0.0 mm 0.00 in0.0 mm 0.00 in0.0 mm
06:36 AM 18.8°F-7.3°C 18.3°F-7.6°C 98% - N N -- 30.11 in1019.6 mb 0.00 in0.0 mm 0.00 in0.0 mm 0.00 in0.0 mm
06:30 AM 19.2°F-7.1°C 18.7°F-7.4°C 98% - N N -- 30.11 in1019.6 mb 0.00 in0.0 mm 0.00 in0.0 mm 0.00 in0.0 mm
06:24 AM 19.2°F-7.1°C 18.7°F-7.4°C 98% - N N -- 30.11 in1019.6 mb 0.00 in0.0 mm 0.00 in0.0 mm 0.00 in0.0 mm
06:18 AM 19.2°F-7.1°C 18.7°F-7.4°C 98% - N N -- 30.10 in1019.3 mb 0.00 in0.0 mm 0.00 in0.0 mm 0.00 in0.0 mm
06:12 AM 19.2°F-7.1°C 18.8°F-7.3°C 98% - N N -- 30.10 in1019.3 mb 0.00 in0.0 mm 0.00 in0.0 mm 0.00 in0.0 mm
06:06 AM 19.7°F-6.8°C 19.2°F-7.1°C 98% - N N -- 30.10 in1019.3 mb 0.00 in0.0 mm 0.00 in0.0 mm 0.00 in0.0 mm
06:00 AM 19.9°F-6.7°C 19.4°F-7.0°C 98% - N N -- 30.10 in1019.3 mb 0.00 in0.0 mm 0.00 in0.0 mm 0.00 in0.0 mm
05:54 AM 20.2°F-6.6°C 19.7°F-6.8°C 98% - N N -- 30.10 in1019.3 mb 0.00 in0.0 mm 0.00 in0.0 mm 0.00 in0.0 mm
05:48 AM 20.7°F-6.3°C 20.2°F-6.6°C 98% - N N -- 30.10 in1019.3 mb 0.00 in0.0 mm 0.00 in0.0 mm 0.00 in0.0 mm
05:42 AM 20.7°F-6.3°C 20.2°F-6.6°C 98% - N N -- 30.10 in1019.3 mb 0.00 in0.0 mm 0.00 in0.0 mm 0.00 in0.0 mm
05:36 AM 20.7°F-6.3°C 20.2°F-6.6°C 98% - N N -- 30.10 in1019.3 mb 0.00 in0.0 mm 0.00 in0.0 mm 0.00 in0.0 mm
05:30 AM 20.7°F-6.3°C 20.2°F-6.6°C 98% - N N -- 30.10 in1019.3 mb 0.00 in0.0 mm 0.00 in0.0 mm 0.00 in0.0 mm
05:24 AM 20.4°F-6.4°C 19.9°F-6.7°C 98% - N N -- 30.10 in1019.3 mb 0.00 in0.0 mm 0.00 in0.0 mm 0.00 in0.0 mm
05:18 AM 20.4°F-6.4°C 19.9°F-6.7°C 98% - N N -- 30.11 in1019.6 mb 0.00 in0.0 mm 0.00 in0.0 mm 0.00 in0.0 mm
05:12 AM 20.4°F-6.4°C 19.9°F-6.7°C 98% - N N -- 30.11 in1019.6 mb 0.00 in0.0 mm 0.00 in0.0 mm 0.00 in0.0 mm
05:06 AM 20.4°F-6.4°C 19.9°F-6.7°C 98% - N N -- 30.11 in1019.6 mb 0.00 in0.0 mm 0.00 in0.0 mm 0.00 in0.0 mm
05:00 AM 20.4°F-6.4°C 19.9°F-6.7°C 98% - N N -- 30.11 in1019.6 mb 0.00 in0.0 mm 0.00 in0.0 mm 0.00 in0.0 mm
04:54 AM 20.3°F-6.5°C 19.9°F-6.7°C 98% - N N -- 30.11 in1019.6 mb 0.00 in0.0 mm 0.00 in0.0 mm 0.00 in0.0 mm
04:48 AM 20.2°F-6.6°C 19.7°F-6.8°C 98% - N N -- 30.11 in1019.6 mb 0.00 in0.0 mm 0.00 in0.0 mm 0.00 in0.0 mm
04:42 AM 20.3°F-6.5°C 19.8°F-6.8°C 98% - N N -- 30.10 in1019.3 mb 0.00 in0.0 mm 0.00 in0.0 mm 0.00 in0.0 mm
04:36 AM 20.7°F-6.3°C 20.2°F-6.6°C 98% - N N -- 30.10 in1019.3 mb 0.00 in0.0 mm 0.00 in0.0 mm 0.00 in0.0 mm
04:30 AM 20.7°F-6.3°C 20.2°F-6.6°C 98% - N N -- 30.10 in1019.3 mb 0.00 in0.0 mm 0.00 in0.0 mm 0.00 in0.0 mm
04:24 AM 20.4°F-6.4°C 19.9°F-6.7°C 98% - N N -- 30.10 in1019.3 mb 0.00 in0.0 mm 0.00 in0.0 mm 0.00 in0.0 mm
04:18 AM 20.4°F-6.4°C 19.9°F-6.7°C 98% 1.0 mph NW1.6 kmh NW 1.0 mph1.6 kmh 30.10 in1019.3 mb 0.00 in0.0 mm 0.00 in0.0 mm 0.00 in0.0 mm
04:12 AM 20.2°F-6.6°C 19.7°F-6.8°C 98% - N N -- 30.10 in1019.3 mb 0.00 in0.0 mm 0.00 in0.0 mm 0.00 in0.0 mm
04:06 AM 20.4°F-6.4°C 19.9°F-6.7°C 98% - N N -- 30.09 in1019.0 mb 0.00 in0.0 mm 0.00 in0.0 mm 0.00 in0.0 mm
04:00 AM 20.5°F-6.4°C 20.0°F-6.7°C 98% - N N -- 30.09 in1019.0 mb 0.00 in0.0 mm 0.00 in0.0 mm 0.00 in0.0 mm
03:54 AM 20.7°F-6.3°C 20.2°F-6.6°C 98% - N N -- 30.10 in1019.3 mb 0.00 in0.0 mm 0.00 in0.0 mm 0.00 in0.0 mm
03:48 AM 20.9°F-6.2°C 20.4°F-6.4°C 98% 1.0 mph NNW1.6 kmh NNW 1.0 mph1.6 kmh 30.09 in1019.0 mb 0.00 in0.0 mm 0.00 in0.0 mm 0.00 in0.0 mm
03:42 AM 21.2°F-6.0°C 20.7°F-6.3°C 98% - N N -- 30.09 in1019.0 mb 0.00 in0.0 mm 0.00 in0.0 mm 0.00 in0.0 mm
03:36 AM 21.3°F-5.9°C 20.8°F-6.2°C 98% 1.0 mph NW1.6 kmh NW 1.0 mph1.6 kmh 30.09 in1019.0 mb 0.00 in0.0 mm 0.00 in0.0 mm 0.00 in0.0 mm
03:30 AM 21.8°F-5.7°C 21.4°F-5.9°C 98% 1.0 mph NW1.6 kmh NW 1.0 mph1.6 kmh 30.09 in1019.0 mb 0.00 in0.0 mm 0.00 in0.0 mm 0.00 in0.0 mm
03:24 AM 22.0°F-5.6°C 21.5°F-5.8°C 98% - N N -- 30.09 in1019.0 mb 0.00 in0.0 mm 0.00 in0.0 mm 0.00 in0.0 mm
03:18 AM 22.5°F-5.3°C 22.0°F-5.6°C 98% 1.0 mph NW1.6 kmh NW 1.0 mph1.6 kmh 30.10 in1019.3 mb 0.00 in0.0 mm 0.00 in0.0 mm 0.00 in0.0 mm
03:12 AM 22.8°F-5.1°C 22.4°F-5.3°C 98% 1.0 mph WNW1.6 kmh WNW 1.0 mph1.6 kmh 30.11 in1019.6 mb 0.00 in0.0 mm 0.00 in0.0 mm 0.00 in0.0 mm
03:06 AM 22.9°F-5.1°C 22.4°F-5.3°C 98% 1.0 mph WNW1.6 kmh WNW 1.0 mph1.6 kmh 30.11 in1019.6 mb 0.00 in0.0 mm 0.00 in0.0 mm 0.00 in0.0 mm
03:00 AM 22.9°F-5.1°C 22.4°F-5.3°C 98% - N N -- 30.11 in1019.6 mb 0.00 in0.0 mm 0.00 in0.0 mm 0.00 in0.0 mm
02:54 AM 22.9°F-5.1°C 22.4°F-5.3°C 98% - N N -- 30.11 in1019.6 mb 0.00 in0.0 mm 0.00 in0.0 mm 0.00 in0.0 mm
02:48 AM 23.3°F-4.8°C 22.8°F-5.1°C 98% - N N -- 30.11 in1019.6 mb 0.00 in0.0 mm 0.00 in0.0 mm 0.00 in0.0 mm
02:42 AM 23.3°F-4.8°C 22.8°F-5.1°C 98% - N N -- 30.11 in1019.6 mb 0.00 in0.0 mm 0.00 in0.0 mm 0.00 in0.0 mm
02:36 AM 23.4°F-4.8°C 22.9°F-5.1°C 98% - N N -- 30.10 in1019.3 mb 0.00 in0.0 mm 0.00 in0.0 mm 0.00 in0.0 mm
02:30 AM 23.7°F-4.6°C 23.2°F-4.9°C 98% - N N -- 30.10 in1019.3 mb 0.00 in0.0 mm 0.00 in0.0 mm 0.00 in0.0 mm
02:24 AM 23.7°F-4.6°C 23.2°F-4.9°C 98% - N N -- 30.11 in1019.6 mb 0.00 in0.0 mm 0.00 in0.0 mm 0.00 in0.0 mm
02:18 AM 23.7°F-4.6°C 23.2°F-4.9°C 98% - N N -- 30.11 in1019.6 mb 0.00 in0.0 mm 0.00 in0.0 mm 0.00 in0.0 mm
02:12 AM 23.8°F-4.6°C 23.3°F-4.8°C 98% - N N -- 30.11 in1019.6 mb 0.00 in0.0 mm 0.00 in0.0 mm 0.00 in0.0 mm
02:06 AM 23.8°F-4.6°C 23.3°F-4.8°C 98% - N N -- 30.11 in1019.6 mb 0.00 in0.0 mm 0.00 in0.0 mm 0.00 in0.0 mm
02:00 AM 23.4°F-4.8°C 22.9°F-5.1°C 98% - N N -- 30.10 in1019.3 mb 0.00 in0.0 mm 0.00 in0.0 mm 0.00 in0.0 mm
01:54 AM 23.5°F-4.7°C 23.0°F-5.0°C 98% - N N -- 30.10 in1019.3 mb 0.00 in0.0 mm 0.00 in0.0 mm 0.00 in0.0 mm
01:48 AM 23.7°F-4.6°C 23.2°F-4.9°C 98% - N N -- 30.10 in1019.3 mb 0.00 in0.0 mm 0.00 in0.0 mm 0.00 in0.0 mm
01:42 AM 23.7°F-4.6°C 23.2°F-4.9°C 98% - N N -- 30.09 in1019.0 mb 0.00 in0.0 mm 0.00 in0.0 mm 0.00 in0.0 mm
01:36 AM 23.8°F-4.6°C 23.3°F-4.8°C 98% - N N -- 30.10 in1019.3 mb 0.00 in0.0 mm 0.00 in0.0 mm 0.00 in0.0 mm
01:30 AM 23.8°F-4.6°C 23.3°F-4.8°C 98% - N N -- 30.10 in1019.3 mb 0.00 in0.0 mm 0.00 in0.0 mm 0.00 in0.0 mm
01:24 AM 24.0°F-4.4°C 23.5°F-4.7°C 98% 1.0 mph NW1.6 kmh NW 1.0 mph1.6 kmh 30.09 in1019.0 mb 0.00 in0.0 mm 0.00 in0.0 mm 0.00 in0.0 mm
01:18 AM 24.2°F-4.3°C 23.7°F-4.6°C 98% 1.0 mph 1.6 kmh 1.0 mph1.6 kmh 30.09 in1019.0 mb 0.00 in0.0 mm 0.00 in0.0 mm 0.00 in0.0 mm
01:12 AM 24.5°F-4.2°C 24.0°F-4.4°C 98% - N N -- 30.10 in1019.3 mb 0.00 in0.0 mm 0.00 in0.0 mm 0.00 in0.0 mm
01:06 AM 25.1°F-3.8°C 24.6°F-4.1°C 98% - N N -- 30.10 in1019.3 mb 0.00 in0.0 mm 0.00 in0.0 mm 0.00 in0.0 mm
01:00 AM 25.7°F-3.5°C 25.2°F-3.8°C 98% - N N -- 30.10 in1019.3 mb 0.00 in0.0 mm 0.00 in0.0 mm 0.00 in0.0 mm
12:54 AM 26.1°F-3.3°C 25.6°F-3.6°C 98% 1.0 mph NW1.6 kmh NW 1.0 mph1.6 kmh 30.10 in1019.3 mb 0.00 in0.0 mm 0.00 in0.0 mm 0.00 in0.0 mm
12:48 AM 26.3°F-3.2°C 25.8°F-3.4°C 98% 1.0 mph NW1.6 kmh NW 1.0 mph1.6 kmh 30.10 in1019.3 mb 0.00 in0.0 mm 0.00 in0.0 mm 0.00 in0.0 mm
12:42 AM 26.3°F-3.2°C 25.8°F-3.4°C 98% 1.4 mph WNW2.3 kmh WNW 2.0 mph3.2 kmh 30.10 in1019.3 mb 0.00 in0.0 mm 0.00 in0.0 mm 0.00 in0.0 mm
12:36 AM 26.2°F-3.2°C 25.7°F-3.5°C 98% 2.3 mph WNW3.7 kmh WNW 3.0 mph4.8 kmh 30.09 in1019.0 mb 0.00 in0.0 mm 0.00 in0.0 mm 0.00 in0.0 mm
12:30 AM 26.2°F-3.2°C 25.7°F-3.5°C 98% 1.7 mph W2.7 kmh W 2.0 mph3.2 kmh 30.10 in1019.3 mb 0.00 in0.0 mm 0.00 in0.0 mm 0.00 in0.0 mm
12:24 AM 26.1°F-3.3°C 25.6°F-3.6°C 98% 1.7 mph WNW2.7 kmh WNW 2.0 mph3.2 kmh 30.09 in1019.0 mb 0.00 in0.0 mm 0.00 in0.0 mm 0.00 in0.0 mm
12:18 AM 26.1°F-3.3°C 25.6°F-3.6°C 98% 1.1 mph W1.8 kmh W 2.0 mph3.2 kmh 30.10 in1019.3 mb 0.00 in0.0 mm 0.00 in0.0 mm 0.00 in0.0 mm
12:12 AM 25.9°F-3.4°C 25.4°F-3.7°C 98% 1.2 mph WNW1.9 kmh WNW 2.0 mph3.2 kmh 30.10 in1019.3 mb 0.00 in0.0 mm 0.00 in0.0 mm 0.00 in0.0 mm
12:06 AM 25.9°F-3.4°C 25.4°F-3.7°C 98% 1.1 mph WNW1.8 kmh WNW 2.0 mph3.2 kmh 30.10 in1019.3 mb 0.00 in0.0 mm 0.00 in0.0 mm 0.00 in0.0 mm
12:00 AM 26.1°F-3.3°C 25.6°F-3.6°C 98% 1.0 mph W1.6 kmh W 1.0 mph1.6 kmh 30.10 in1019.3 mb 0.00 in0.0 mm 0.00 in0.0 mm 0.00 in0.0 mm